createdAt,value
2022-09-23T00:02:11.755Z,11.26
2022-09-23T00:05:14.651Z,11.30
2022-09-23T00:08:16.852Z,11.20
2022-09-23T00:11:24.294Z,11.27
2022-09-23T00:14:27.157Z,11.25
2022-09-23T00:17:29.430Z,11.18
2022-09-23T00:20:33.992Z,11.14
2022-09-23T00:23:36.505Z,11.13
2022-09-23T00:26:38.731Z,11.15
2022-09-23T00:29:41.272Z,11.15
2022-09-23T00:32:43.526Z,11.21
2022-09-23T00:35:45.941Z,11.21
2022-09-23T00:38:48.375Z,11.06
2022-09-23T00:41:50.658Z,11.06
2022-09-23T00:44:58.484Z,11.07
2022-09-23T00:48:02.294Z,10.96
2022-09-23T00:51:04.915Z,11.11
2022-09-23T00:54:07.877Z,11.13
2022-09-23T00:57:11.226Z,11.11
2022-09-23T01:00:14.099Z,11.24
2022-09-23T01:03:16.404Z,11.29
2022-09-23T01:06:18.653Z,11.25
2022-09-23T01:09:22.320Z,11.14
2022-09-23T01:12:39.601Z,11.16
2022-09-23T01:15:49.280Z,10.94
2022-09-23T01:19:01.869Z,10.87
2022-09-23T01:22:11.004Z,10.58
2022-09-23T01:25:28.760Z,10.84
2022-09-23T01:28:43.390Z,10.71
2022-09-23T01:32:00.288Z,10.66
2022-09-23T01:35:08.416Z,10.70
2022-09-23T01:38:13.215Z,10.69
2022-09-23T01:41:24.228Z,10.78
2022-09-23T01:44:30.811Z,10.77
2022-09-23T01:47:40.274Z,10.65
2022-09-23T01:50:59.228Z,10.56
2022-09-23T01:54:15.959Z,10.48
2022-09-23T01:57:34.479Z,10.60
2022-09-23T02:00:41.030Z,10.47
2022-09-23T02:04:22.503Z,10.52
2022-09-23T02:07:53.706Z,10.39
2022-09-23T02:10:59.112Z,10.40
2022-09-23T02:14:15.482Z,10.48
2022-09-23T02:17:24.721Z,10.53
2022-09-23T02:20:33.000Z,10.55
2022-09-23T02:23:45.018Z,10.37
2022-09-23T02:26:51.801Z,10.41
2022-09-23T02:30:09.781Z,10.50
2022-09-23T02:33:21.315Z,10.41
2022-09-23T02:36:32.339Z,10.40
2022-09-23T02:39:42.790Z,10.38
2022-09-23T02:42:44.944Z,10.36
2022-09-23T02:45:47.665Z,10.37
2022-09-23T02:48:53.507Z,10.36
2022-09-23T02:51:56.892Z,10.40
2022-09-23T02:55:00.926Z,10.42
2022-09-23T02:58:03.843Z,10.36
2022-09-23T03:01:11.697Z,10.38
2022-09-23T03:04:32.086Z,10.44
2022-09-23T03:07:53.044Z,10.34
2022-09-23T03:11:07.522Z,10.30
2022-09-23T03:14:19.853Z,10.29
2022-09-23T03:17:27.577Z,10.30
2022-09-23T03:20:37.369Z,10.41
2022-09-23T03:23:41.198Z,10.38
2022-09-23T03:26:45.864Z,10.25
2022-09-23T03:29:49.742Z,10.14
2022-09-23T03:32:52.375Z,10.18
2022-09-23T03:36:24.473Z,10.32
2022-09-23T03:39:44.504Z,10.46
2022-09-23T03:42:50.189Z,10.46
2022-09-23T03:45:57.571Z,10.57
2022-09-23T03:49:07.204Z,10.65
2022-09-23T03:52:09.778Z,10.46
2022-09-23T03:55:12.049Z,10.58
2022-09-23T03:58:14.577Z,10.54
2022-09-23T04:01:16.918Z,10.64
2022-09-23T04:04:19.237Z,10.64
2022-09-23T04:07:21.481Z,10.68
2022-09-23T04:10:24.122Z,10.48
2022-09-23T04:13:26.405Z,10.46
2022-09-23T04:16:29.114Z,10.26
2022-09-23T04:19:31.367Z,10.27
2022-09-23T04:22:35.060Z,10.33
2022-09-23T04:25:44.773Z,10.31
2022-09-23T04:28:46.975Z,10.34
2022-09-23T04:31:50.059Z,10.40
2022-09-23T04:34:52.329Z,10.38
2022-09-23T04:37:54.534Z,10.39
2022-09-23T04:40:57.101Z,10.21
2022-09-23T04:43:59.419Z,10.23
2022-09-23T04:47:01.731Z,10.24
2022-09-23T04:50:04.177Z,10.32
2022-09-23T04:53:06.480Z,10.40
2022-09-23T04:56:12.043Z,10.27
2022-09-23T04:59:14.426Z,10.41
2022-09-23T05:02:16.889Z,10.28
2022-09-23T05:05:21.053Z,10.43
2022-09-23T05:08:23.266Z,10.61
2022-09-23T05:11:26.147Z,10.62
2022-09-23T05:14:28.343Z,10.67
2022-09-23T05:17:31.297Z,10.76
2022-09-23T05:20:33.539Z,10.89
2022-09-23T05:23:36.432Z,11.06
2022-09-23T05:26:38.696Z,11.23
2022-09-23T05:29:41.100Z,11.28
2022-09-23T05:32:43.481Z,11.16
2022-09-23T05:35:48.633Z,11.32
2022-09-23T05:38:51.439Z,11.28
2022-09-23T05:41:55.622Z,11.15
2022-09-23T05:44:57.828Z,11.19
2022-09-23T05:48:00.007Z,11.24
2022-09-23T05:51:02.989Z,11.22
2022-09-23T05:54:05.775Z,11.31
2022-09-23T05:57:08.132Z,11.56
2022-09-23T06:00:11.011Z,11.89
2022-09-23T06:03:20.867Z,12.08
2022-09-23T06:06:31.371Z,12.28
2022-09-23T06:09:36.486Z,12.25
2022-09-23T06:12:39.199Z,12.59
2022-09-23T06:15:41.768Z,12.82
2022-09-23T06:18:45.303Z,12.94
2022-09-23T06:21:48.815Z,13.05
2022-09-23T06:24:51.020Z,13.25
2022-09-23T06:27:57.200Z,13.35
2022-09-23T06:31:00.726Z,13.50
2022-09-23T06:34:10.465Z,13.66
2022-09-23T06:37:19.795Z,13.90
2022-09-23T06:40:22.845Z,14.22
2022-09-23T06:43:26.021Z,14.48
2022-09-23T06:46:28.314Z,14.69
2022-09-23T06:49:31.520Z,14.92
2022-09-23T06:52:34.437Z,15.28
2022-09-23T06:55:36.662Z,15.45
2022-09-23T06:58:39.201Z,15.67
2022-09-23T07:01:41.700Z,16.02
2022-09-23T07:04:44.102Z,16.27
2022-09-23T07:07:46.397Z,16.57
2022-09-23T07:11:02.268Z,16.78
2022-09-23T07:14:04.620Z,17.02
2022-09-23T07:17:07.355Z,17.33
2022-09-23T07:20:11.511Z,17.49
2022-09-23T07:23:13.765Z,17.61
2022-09-23T07:26:18.053Z,17.94
2022-09-23T07:29:20.313Z,18.09
2022-09-23T07:32:23.234Z,18.34
2022-09-23T07:35:28.136Z,18.84
2022-09-23T07:38:31.439Z,18.97
2022-09-23T07:41:34.094Z,19.22
2022-09-23T07:44:36.322Z,19.27
2022-09-23T07:47:39.977Z,19.32
2022-09-23T07:50:42.230Z,19.54
2022-09-23T07:53:48.363Z,19.82
2022-09-23T07:56:50.568Z,19.71
2022-09-23T07:59:53.041Z,19.67
2022-09-23T08:02:55.222Z,19.94
2022-09-23T08:06:05.519Z,20.06
2022-09-23T08:09:07.738Z,20.00
2022-09-23T08:12:17.145Z,19.95
2022-09-23T08:15:19.359Z,20.10
2022-09-23T08:18:23.938Z,20.39
2022-09-23T08:21:26.177Z,20.44
2022-09-23T08:24:30.400Z,20.26
2022-09-23T08:27:33.399Z,20.33
2022-09-23T08:30:35.764Z,20.67
2022-09-23T08:33:37.993Z,20.83
2022-09-23T08:36:40.163Z,20.65
2022-09-23T08:39:42.373Z,20.62
2022-09-23T08:42:45.697Z,20.75
2022-09-23T08:45:48.115Z,20.96
2022-09-23T08:48:50.486Z,20.94
2022-09-23T08:51:54.892Z,20.88
2022-09-23T08:54:57.170Z,21.05
2022-09-23T08:58:27.846Z,20.91
2022-09-23T09:01:46.029Z,20.72
2022-09-23T09:04:52.497Z,20.71
2022-09-23T09:07:58.077Z,21.05
2022-09-23T09:11:00.873Z,21.12
2022-09-23T09:14:18.250Z,21.26
2022-09-23T09:17:39.905Z,21.19
2022-09-23T09:21:02.751Z,21.19
2022-09-23T09:24:27.060Z,21.20
2022-09-23T09:27:29.385Z,20.89
2022-09-23T09:30:33.038Z,21.38
2022-09-23T09:33:47.662Z,21.41
2022-09-23T09:37:07.533Z,21.05
2022-09-23T09:40:13.817Z,20.47
2022-09-23T09:43:23.250Z,20.29
2022-09-23T09:47:01.456Z,20.75
2022-09-23T09:50:10.614Z,21.30
2022-09-23T09:53:35.849Z,21.31
2022-09-23T09:56:39.982Z,21.66
2022-09-23T09:59:44.148Z,21.68
2022-09-23T10:02:46.812Z,21.92
2022-09-23T10:05:52.368Z,21.99
2022-09-23T10:09:13.860Z,22.16
2022-09-23T10:12:18.783Z,22.15
2022-09-23T10:15:44.892Z,22.06
2022-09-23T10:18:47.471Z,22.09
2022-09-23T10:22:00.229Z,22.08
2022-09-23T10:25:07.991Z,22.00
2022-09-23T10:28:32.276Z,21.69
2022-09-23T10:31:35.932Z,21.96
2022-09-23T10:34:43.481Z,21.81
2022-09-23T10:37:52.938Z,21.39
2022-09-23T10:41:15.688Z,21.37
2022-09-23T10:44:50.294Z,21.12
2022-09-23T10:48:21.830Z,21.15
2022-09-23T10:51:33.659Z,21.03
2022-09-23T10:54:58.258Z,21.52
2022-09-23T10:58:10.407Z,21.67
2022-09-23T11:01:17.204Z,21.79
2022-09-23T11:04:37.197Z,21.96
2022-09-23T11:07:45.117Z,22.24
2022-09-23T11:11:11.529Z,22.29
2022-09-23T11:14:25.950Z,22.39
2022-09-23T11:17:35.224Z,22.52
2022-09-23T11:21:04.736Z,22.50
2022-09-23T11:24:22.153Z,22.21
2022-09-23T11:27:39.370Z,21.96
2022-09-23T11:31:07.275Z,22.08
2022-09-23T11:34:26.052Z,22.05
2022-09-23T11:37:41.241Z,21.73
2022-09-23T11:40:46.627Z,21.43
2022-09-23T11:43:53.478Z,21.63
2022-09-23T11:47:07.763Z,21.64
2022-09-23T11:50:25.789Z,21.63
2022-09-23T11:53:38.231Z,21.67
2022-09-23T11:56:48.257Z,21.47
2022-09-23T11:59:57.301Z,20.93
2022-09-23T12:03:06.020Z,20.92
2022-09-23T12:06:16.124Z,20.57
2022-09-23T12:09:56.787Z,20.53
2022-09-23T12:13:00.939Z,20.29
2022-09-23T12:16:25.049Z,19.99
2022-09-23T12:19:33.255Z,19.93
2022-09-23T12:22:39.174Z,19.71
2022-09-23T12:25:54.895Z,19.55
2022-09-23T12:29:01.592Z,19.61
2022-09-23T12:32:09.975Z,19.35
2022-09-23T12:35:32.229Z,18.90
2022-09-23T12:39:04.406Z,18.94
2022-09-23T12:42:15.655Z,18.96
2022-09-23T12:45:28.234Z,19.13
2022-09-23T12:49:08.259Z,19.31
2022-09-23T12:52:14.186Z,19.39
2022-09-23T12:55:23.231Z,19.40
2022-09-23T12:58:38.344Z,19.25
2022-09-23T13:01:41.115Z,19.26
2022-09-23T13:05:21.800Z,19.09
2022-09-23T13:08:25.037Z,19.12
2022-09-23T13:11:29.417Z,19.22
2022-09-23T13:14:32.803Z,19.17
2022-09-23T13:17:39.830Z,19.37
2022-09-23T13:20:42.058Z,19.32
2022-09-23T13:24:12.804Z,19.37
2022-09-23T13:27:38.204Z,19.44
2022-09-23T13:30:49.286Z,19.63
2022-09-23T13:34:00.754Z,19.87
2022-09-23T13:37:22.475Z,19.87
2022-09-23T13:40:29.423Z,20.06
2022-09-23T13:43:41.366Z,20.08
2022-09-23T13:46:47.503Z,19.86
2022-09-23T13:49:49.916Z,19.76
2022-09-23T13:53:00.201Z,19.65
2022-09-23T13:56:10.184Z,19.53
2022-09-23T13:59:41.030Z,19.44
2022-09-23T14:02:44.061Z,19.24
2022-09-23T14:05:46.507Z,19.19
2022-09-23T14:08:50.292Z,18.98
2022-09-23T14:11:52.694Z,18.98
2022-09-23T14:14:55.036Z,18.93
2022-09-23T14:18:06.466Z,18.86
2022-09-23T14:21:30.431Z,18.89
2022-09-23T14:24:37.036Z,18.91
2022-09-23T14:27:41.048Z,18.91
2022-09-23T14:30:46.204Z,18.88
2022-09-23T14:33:48.527Z,18.89
2022-09-23T14:37:09.405Z,19.02
2022-09-23T14:40:18.243Z,18.81
2022-09-23T14:43:25.842Z,18.69
2022-09-23T14:46:30.271Z,18.70
2022-09-23T14:49:32.769Z,18.59
2022-09-23T14:52:34.975Z,18.52
2022-09-23T14:55:37.293Z,18.43
2022-09-23T14:58:57.115Z,18.41
2022-09-23T15:01:59.335Z,18.25
2022-09-23T15:05:31.231Z,18.11
2022-09-23T15:08:33.897Z,18.14
2022-09-23T15:11:36.320Z,18.10
2022-09-23T15:14:41.598Z,18.02
2022-09-23T15:17:44.325Z,17.90
2022-09-23T15:21:07.510Z,17.83
2022-09-23T15:24:36.358Z,17.95
2022-09-23T15:27:38.582Z,17.98
2022-09-23T15:30:41.278Z,17.90
2022-09-23T15:33:50.717Z,17.91
2022-09-23T15:36:54.085Z,17.92
2022-09-23T15:39:56.356Z,17.96
2022-09-23T15:43:01.263Z,17.79
2022-09-23T15:46:08.982Z,17.77
2022-09-23T15:49:28.422Z,17.69
2022-09-23T15:52:30.633Z,17.63
2022-09-23T15:55:33.799Z,17.66
2022-09-23T15:58:36.049Z,17.71
2022-09-23T16:01:38.828Z,17.71
2022-09-23T16:04:41.092Z,17.57
2022-09-23T16:07:43.331Z,17.49
2022-09-23T16:10:45.583Z,17.48
2022-09-23T16:13:47.850Z,17.41
2022-09-23T16:16:50.148Z,17.35
2022-09-23T16:19:55.883Z,17.40
2022-09-23T16:23:01.479Z,17.38
2022-09-23T16:26:26.985Z,17.28
2022-09-23T16:29:29.259Z,17.24
2022-09-23T16:32:31.492Z,17.20
2022-09-23T16:35:33.822Z,17.06
2022-09-23T16:38:36.121Z,16.93
2022-09-23T16:41:38.453Z,16.94
2022-09-23T16:44:41.560Z,16.94
2022-09-23T16:47:45.301Z,16.95
2022-09-23T16:50:47.774Z,16.89
2022-09-23T16:53:51.102Z,16.88
2022-09-23T16:56:55.213Z,16.94
2022-09-23T17:00:16.122Z,16.81
2022-09-23T17:03:37.010Z,16.84
2022-09-23T17:06:50.063Z,16.92
2022-09-23T17:09:52.622Z,16.92
2022-09-23T17:12:54.867Z,16.84
2022-09-23T17:15:57.190Z,16.83
2022-09-23T17:19:00.410Z,16.82
2022-09-23T17:22:02.711Z,16.74
2022-09-23T17:25:05.426Z,16.76
2022-09-23T17:28:07.668Z,16.67
2022-09-23T17:31:09.977Z,16.63
2022-09-23T17:34:12.864Z,16.67
2022-09-23T17:37:15.114Z,16.58
2022-09-23T17:40:18.032Z,16.42
2022-09-23T17:43:25.336Z,16.26
2022-09-23T17:46:30.087Z,16.06
2022-09-23T17:49:35.174Z,15.99
2022-09-23T17:52:37.400Z,15.85
2022-09-23T17:55:39.657Z,15.66
2022-09-23T17:58:42.661Z,15.55
2022-09-23T18:01:44.939Z,15.38
2022-09-23T18:04:47.295Z,15.19
